createdAt,value
2023-05-09T00:00:51.037Z,15.76
2023-05-09T00:02:55.612Z,15.77
2023-05-09T00:04:57.589Z,15.67
2023-05-09T00:06:59.577Z,15.92
2023-05-09T00:09:01.561Z,15.69
2023-05-09T00:11:05.733Z,15.89
2023-05-09T00:13:08.149Z,15.92
2023-05-09T00:15:10.862Z,15.87
2023-05-09T00:17:14.771Z,15.94
2023-05-09T00:19:16.758Z,15.95
2023-05-09T00:21:18.712Z,15.91
2023-05-09T00:23:22.011Z,15.88
2023-05-09T00:25:23.968Z,15.88
2023-05-09T00:27:28.945Z,16.02
2023-05-09T00:29:35.774Z,16.06
2023-05-09T00:31:37.763Z,16.01
2023-05-09T00:33:39.983Z,15.84
2023-05-09T00:35:41.713Z,15.94
2023-05-09T00:37:43.566Z,15.73
2023-05-09T00:39:46.395Z,15.83
2023-05-09T00:41:48.454Z,15.82
2023-05-09T00:43:50.549Z,15.91
2023-05-09T00:45:55.029Z,15.97
2023-05-09T00:47:57.772Z,15.99
2023-05-09T00:49:59.928Z,15.95
2023-05-09T00:52:02.925Z,15.93
2023-05-09T00:54:07.628Z,15.90
2023-05-09T00:56:12.450Z,15.90
2023-05-09T00:58:14.543Z,16.05
2023-05-09T01:00:18.865Z,15.99
2023-05-09T01:02:21.312Z,15.91
2023-05-09T01:04:23.978Z,16.10
2023-05-09T01:06:39.977Z,16.20
2023-05-09T01:08:59.797Z,16.20
2023-05-09T01:11:10.426Z,16.16
2023-05-09T01:13:28.439Z,16.20
2023-05-09T01:15:39.599Z,16.14
2023-05-09T01:17:50.368Z,16.14
2023-05-09T01:19:56.839Z,15.94
2023-05-09T01:22:02.387Z,16.03
2023-05-09T01:24:08.557Z,15.93
2023-05-09T01:26:19.304Z,16.07
2023-05-09T01:28:33.567Z,15.99
2023-05-09T01:30:37.916Z,15.96
2023-05-09T01:32:42.907Z,15.96
2023-05-09T01:34:47.907Z,15.97
2023-05-09T01:36:51.866Z,15.96
2023-05-09T01:38:54.997Z,15.82
2023-05-09T01:40:59.841Z,15.89
2023-05-09T01:43:07.325Z,15.72
2023-05-09T01:45:11.556Z,15.81
2023-05-09T01:47:16.791Z,15.83
2023-05-09T01:49:20.659Z,15.78
2023-05-09T01:51:24.362Z,15.90
2023-05-09T01:53:32.910Z,15.88
2023-05-09T01:55:36.862Z,15.91
2023-05-09T01:57:42.207Z,15.96
2023-05-09T01:59:46.225Z,15.91
2023-05-09T02:01:49.300Z,15.91
2023-05-09T02:03:53.650Z,15.97
2023-05-09T02:05:57.158Z,15.94
2023-05-09T02:08:00.456Z,16.01
2023-05-09T02:10:03.368Z,15.93
2023-05-09T02:12:05.644Z,15.71
2023-05-09T02:14:08.096Z,15.88
2023-05-09T02:16:10.495Z,15.95
2023-05-09T02:18:13.068Z,15.97
2023-05-09T02:20:15.452Z,15.79
2023-05-09T02:22:17.595Z,15.90
2023-05-09T02:24:19.497Z,15.84
2023-05-09T02:26:22.866Z,15.94
2023-05-09T02:28:27.658Z,15.85
2023-05-09T02:30:36.472Z,15.95
2023-05-09T02:32:40.872Z,15.95
2023-05-09T02:34:44.064Z,15.95
2023-05-09T02:36:49.753Z,16.03
2023-05-09T02:38:51.985Z,15.78
2023-05-09T02:40:53.892Z,15.84
2023-05-09T02:42:56.614Z,15.91
2023-05-09T02:44:58.472Z,15.88
2023-05-09T02:47:01.903Z,15.97
2023-05-09T02:49:03.728Z,16.01
2023-05-09T02:51:05.765Z,16.07
2023-05-09T02:53:07.537Z,16.08
2023-05-09T02:55:10.057Z,15.91
2023-05-09T02:57:12.095Z,16.05
2023-05-09T02:59:14.061Z,16.10
2023-05-09T03:01:15.862Z,16.13
2023-05-09T03:03:18.306Z,16.13
2023-05-09T03:05:20.708Z,16.18
2023-05-09T03:07:24.864Z,16.19
2023-05-09T03:09:31.796Z,16.11
2023-05-09T03:11:34.042Z,16.20
2023-05-09T03:13:40.151Z,16.20
2023-05-09T03:15:42.146Z,16.29
2023-05-09T03:17:44.114Z,16.32
2023-05-09T03:19:46.204Z,16.29
2023-05-09T03:21:48.060Z,16.26
2023-05-09T03:23:49.938Z,16.29
2023-05-09T03:25:51.713Z,16.27
2023-05-09T03:27:53.550Z,16.28
2023-05-09T03:29:55.608Z,16.21
2023-05-09T03:31:57.578Z,16.24
2023-05-09T03:33:59.435Z,16.11
2023-05-09T03:36:01.440Z,16.22
2023-05-09T03:38:03.395Z,16.23
2023-05-09T03:40:06.870Z,16.26
2023-05-09T03:42:08.637Z,16.29
2023-05-09T03:44:12.578Z,16.25
2023-05-09T03:46:14.520Z,16.29
2023-05-09T03:48:19.034Z,16.27
2023-05-09T03:50:20.954Z,16.20
2023-05-09T03:52:22.852Z,16.19
2023-05-09T03:54:27.236Z,16.19
2023-05-09T03:56:29.201Z,16.21
2023-05-09T03:58:31.458Z,16.25
2023-05-09T04:00:33.447Z,16.24
2023-05-09T04:02:35.262Z,16.18
2023-05-09T04:04:37.155Z,16.22
2023-05-09T04:06:39.843Z,16.16
2023-05-09T04:08:42.218Z,16.16
2023-05-09T04:10:44.682Z,16.15
2023-05-09T04:12:46.459Z,16.18
2023-05-09T04:14:49.009Z,16.21
2023-05-09T04:16:51.100Z,16.22
2023-05-09T04:18:52.860Z,16.19
2023-05-09T04:20:54.603Z,16.18
2023-05-09T04:22:56.509Z,16.19
2023-05-09T04:24:58.244Z,16.15
2023-05-09T04:27:00.007Z,16.10
2023-05-09T04:29:01.852Z,16.11
2023-05-09T04:31:03.616Z,16.08
2023-05-09T04:33:05.708Z,16.06
2023-05-09T04:35:08.445Z,16.09
2023-05-09T04:37:11.170Z,15.96
2023-05-09T04:39:12.948Z,16.08
2023-05-09T04:41:14.729Z,16.07
2023-05-09T04:43:16.412Z,16.07
2023-05-09T04:45:18.163Z,15.96
2023-05-09T04:47:19.836Z,16.01
2023-05-09T04:49:21.587Z,15.96
2023-05-09T04:51:23.402Z,16.02
2023-05-09T04:53:25.094Z,15.98
2023-05-09T04:55:30.819Z,16.03
2023-05-09T04:57:37.578Z,15.98
2023-05-09T04:59:39.369Z,15.99
2023-05-09T05:01:41.424Z,16.01
2023-05-09T05:03:43.202Z,16.04
2023-05-09T05:05:45.047Z,16.03
2023-05-09T05:07:47.042Z,16.09
2023-05-09T05:09:48.756Z,16.10
2023-05-09T05:12:00.777Z,16.05
2023-05-09T05:14:04.316Z,16.14
2023-05-09T05:16:06.126Z,16.10
2023-05-09T05:18:07.849Z,16.09
2023-05-09T05:20:12.329Z,16.15
2023-05-09T05:22:14.005Z,16.13
2023-05-09T05:24:15.797Z,16.12
2023-05-09T05:26:17.503Z,16.12
2023-05-09T05:28:19.280Z,16.16
2023-05-09T05:30:21.151Z,16.03
2023-05-09T05:32:25.935Z,16.09
2023-05-09T05:34:27.698Z,16.05
2023-05-09T05:36:29.580Z,16.12
2023-05-09T05:38:31.349Z,16.02
2023-05-09T05:40:33.088Z,15.84
2023-05-09T05:42:35.053Z,15.96
2023-05-09T05:44:36.816Z,16.02
2023-05-09T05:46:38.605Z,16.02
2023-05-09T05:48:40.345Z,15.97
2023-05-09T05:50:42.030Z,16.03
2023-05-09T05:52:43.729Z,16.09
2023-05-09T05:54:45.549Z,16.11
2023-05-09T05:56:47.401Z,15.93
2023-05-09T05:58:49.482Z,16.08
2023-05-09T06:00:52.828Z,16.02
2023-05-09T06:02:57.154Z,16.00
2023-05-09T06:04:58.965Z,15.85
2023-05-09T06:07:00.769Z,15.98
2023-05-09T06:09:02.570Z,15.94
2023-05-09T06:11:06.008Z,15.81
2023-05-09T06:13:07.771Z,15.88
2023-05-09T06:15:10.039Z,16.01
2023-05-09T06:17:11.903Z,15.95
2023-05-09T06:19:13.729Z,16.02
2023-05-09T06:21:15.514Z,16.02
2023-05-09T06:23:22.272Z,15.87
2023-05-09T06:25:24.110Z,15.90
2023-05-09T06:27:30.748Z,15.99
2023-05-09T06:29:37.641Z,16.02
2023-05-09T06:31:41.190Z,15.85
2023-05-09T06:33:43.144Z,15.86
2023-05-09T06:35:45.181Z,16.02
2023-05-09T06:37:48.660Z,15.95
2023-05-09T06:39:51.113Z,15.80
2023-05-09T06:41:52.920Z,15.86
2023-05-09T06:43:54.695Z,16.04
2023-05-09T06:45:56.704Z,16.08
2023-05-09T06:47:58.638Z,16.15
2023-05-09T06:50:00.474Z,16.17
2023-05-09T06:52:02.486Z,16.07
2023-05-09T06:54:06.668Z,16.17
2023-05-09T06:56:08.518Z,16.01
2023-05-09T06:58:11.260Z,16.11
2023-05-09T07:00:15.033Z,16.07
2023-05-09T07:02:16.895Z,16.09
2023-05-09T07:04:18.814Z,16.11
2023-05-09T07:06:20.886Z,16.20
2023-05-09T07:08:22.746Z,16.21
2023-05-09T07:10:24.662Z,16.25
2023-05-09T07:12:31.733Z,16.32
2023-05-09T07:14:33.533Z,16.37
2023-05-09T07:16:37.436Z,16.41
2023-05-09T07:18:40.204Z,16.49
2023-05-09T07:20:42.214Z,16.54
2023-05-09T07:22:44.790Z,16.60
2023-05-09T07:24:46.785Z,16.59
2023-05-09T07:26:48.711Z,16.56
2023-05-09T07:28:50.814Z,16.65
2023-05-09T07:30:52.714Z,16.72
2023-05-09T07:32:54.749Z,16.72
2023-05-09T07:34:59.104Z,16.74
2023-05-09T07:37:01.138Z,16.78
2023-05-09T07:39:04.517Z,16.84
2023-05-09T07:41:06.879Z,16.87
2023-05-09T07:43:08.882Z,16.90
2023-05-09T07:45:11.282Z,16.93
2023-05-09T07:47:13.148Z,16.95
2023-05-09T07:49:15.124Z,16.95
2023-05-09T07:51:17.123Z,16.87
2023-05-09T07:53:19.462Z,17.00
2023-05-09T07:55:21.517Z,17.06
2023-05-09T07:57:23.495Z,17.07
2023-05-09T07:59:25.462Z,17.10
2023-05-09T08:01:32.850Z,17.15
2023-05-09T08:03:34.919Z,17.14
2023-05-09T08:05:39.951Z,17.21
2023-05-09T08:07:42.112Z,17.25
2023-05-09T08:09:44.357Z,17.23
2023-05-09T08:11:46.208Z,17.35
2023-05-09T08:13:48.421Z,17.34
2023-05-09T08:15:50.552Z,17.27
2023-05-09T08:17:52.557Z,17.20
2023-05-09T08:19:54.865Z,17.28
2023-05-09T08:21:56.800Z,17.36
2023-05-09T08:23:58.708Z,17.37
2023-05-09T08:26:01.463Z,17.34
2023-05-09T08:28:03.625Z,17.37
2023-05-09T08:30:06.764Z,17.19
2023-05-09T08:32:08.995Z,17.29
2023-05-09T08:34:11.085Z,17.40
2023-05-09T08:36:15.947Z,17.42
2023-05-09T08:38:18.277Z,17.45
2023-05-09T08:40:20.857Z,17.28
2023-05-09T08:42:26.064Z,17.42
2023-05-09T08:44:31.483Z,17.43
2023-05-09T08:46:39.280Z,17.36
2023-05-09T08:48:43.600Z,17.31
2023-05-09T08:50:45.852Z,17.47
2023-05-09T08:52:48.270Z,17.45
2023-05-09T08:54:51.644Z,17.58
2023-05-09T08:56:56.500Z,17.59
2023-05-09T08:58:59.298Z,17.51
2023-05-09T09:01:06.930Z,17.37
2023-05-09T09:03:09.037Z,17.25
2023-05-09T09:05:34.217Z,17.26
2023-05-09T09:07:39.993Z,17.36
2023-05-09T09:09:46.383Z,17.31
2023-05-09T09:11:48.986Z,17.30
2023-05-09T09:13:54.128Z,17.33
2023-05-09T09:15:59.300Z,17.40
2023-05-09T09:18:10.251Z,17.48
2023-05-09T09:20:14.976Z,17.52
2023-05-09T09:22:20.058Z,17.60
2023-05-09T09:24:23.757Z,17.70
2023-05-09T09:26:29.421Z,17.78
2023-05-09T09:28:31.387Z,17.71
2023-05-09T09:30:33.652Z,17.79
2023-05-09T09:32:36.508Z,17.82
2023-05-09T09:34:38.838Z,17.95
2023-05-09T09:36:40.833Z,17.95
2023-05-09T09:38:44.212Z,18.11
2023-05-09T09:40:52.927Z,18.17
2023-05-09T09:42:54.753Z,18.18
2023-05-09T09:44:57.994Z,18.07
2023-05-09T09:47:00.140Z,18.20
2023-05-09T09:49:01.989Z,18.02
2023-05-09T09:51:11.965Z,18.16
2023-05-09T09:53:13.857Z,18.08
2023-05-09T09:55:16.193Z,18.14
2023-05-09T09:57:38.389Z,17.73
2023-05-09T09:59:40.363Z,18.14
2023-05-09T10:01:54.540Z,18.15
2023-05-09T10:03:56.505Z,18.33
2023-05-09T10:06:04.191Z,18.53
2023-05-09T10:08:07.838Z,18.35
2023-05-09T10:10:10.237Z,18.44
2023-05-09T10:12:12.329Z,18.68
2023-05-09T10:14:14.408Z,18.65
2023-05-09T10:16:17.053Z,18.60
2023-05-09T10:18:21.828Z,18.61
2023-05-09T10:20:25.390Z,18.91
2023-05-09T10:22:30.186Z,19.02
2023-05-09T10:24:43.386Z,19.22
2023-05-09T10:26:49.852Z,19.26
2023-05-09T10:28:56.116Z,19.29
2023-05-09T10:31:08.600Z,19.34
2023-05-09T10:33:13.545Z,19.13
2023-05-09T10:35:17.814Z,19.44
2023-05-09T10:37:22.474Z,19.65
2023-05-09T10:39:25.249Z,19.74
2023-05-09T10:41:32.323Z,19.93
2023-05-09T10:43:36.605Z,19.98
2023-05-09T10:45:42.906Z,19.98
2023-05-09T10:47:46.572Z,19.97
2023-05-09T10:49:50.196Z,19.94
2023-05-09T10:51:52.905Z,20.01
2023-05-09T10:53:56.363Z,20.02
2023-05-09T10:56:00.475Z,20.01
2023-05-09T10:58:20.172Z,20.15
2023-05-09T11:00:25.588Z,20.16
2023-05-09T11:02:31.155Z,20.20
2023-05-09T11:04:33.219Z,20.27
2023-05-09T11:06:44.092Z,20.23
2023-05-09T11:08:46.871Z,20.10
2023-05-09T11:10:49.320Z,20.07
2023-05-09T11:13:01.098Z,20.18
2023-05-09T11:15:08.053Z,20.25
2023-05-09T11:17:13.109Z,20.30
2023-05-09T11:19:37.136Z,20.26
2023-05-09T11:22:01.489Z,20.35
2023-05-09T11:24:16.904Z,20.21
2023-05-09T11:26:23.709Z,20.43
2023-05-09T11:28:28.968Z,20.36
2023-05-09T11:30:41.826Z,20.62
2023-05-09T11:32:45.583Z,20.63
2023-05-09T11:34:47.707Z,20.47
2023-05-09T11:36:49.548Z,20.37
2023-05-09T11:39:02.713Z,20.34
2023-05-09T11:41:05.305Z,20.15
2023-05-09T11:43:07.886Z,20.03
2023-05-09T11:45:11.180Z,19.94
2023-05-09T11:47:13.264Z,20.18
2023-05-09T11:49:19.749Z,20.18
2023-05-09T11:51:22.151Z,20.17
2023-05-09T11:53:24.493Z,20.06
2023-05-09T11:55:31.480Z,19.84
2023-05-09T11:57:39.003Z,19.84
2023-05-09T11:59:41.571Z,19.65
2023-05-09T12:01:43.380Z,19.73
2023-05-09T12:03:45.552Z,19.74
2023-05-09T12:05:49.275Z,19.77
2023-05-09T12:07:52.678Z,19.91
2023-05-09T12:09:54.803Z,19.99
2023-05-09T12:11:56.684Z,20.03
2023-05-09T12:13:58.582Z,20.14
2023-05-09T12:16:01.968Z,20.24
2023-05-09T12:18:06.170Z,20.28
2023-05-09T12:20:09.153Z,20.44
2023-05-09T12:22:11.386Z,20.53
2023-05-09T12:24:13.364Z,20.68
2023-05-09T12:26:16.013Z,20.69
2023-05-09T12:28:18.483Z,20.82
2023-05-09T12:30:21.133Z,20.90
2023-05-09T12:32:23.594Z,21.16
2023-05-09T12:34:25.641Z,21.15
2023-05-09T12:36:27.542Z,21.35
2023-05-09T12:38:29.384Z,21.48
2023-05-09T12:40:31.265Z,21.53
2023-05-09T12:42:34.342Z,21.72
2023-05-09T12:44:36.843Z,21.80
2023-05-09T12:46:38.921Z,21.86
2023-05-09T12:48:40.890Z,21.90
2023-05-09T12:50:47.666Z,21.94
2023-05-09T12:53:02.751Z,22.11
2023-05-09T12:55:09.938Z,22.08
2023-05-09T12:57:23.073Z,22.44
2023-05-09T12:59:31.361Z,22.47
2023-05-09T13:01:39.722Z,22.58
2023-05-09T13:03:42.792Z,22.77
2023-05-09T13:05:54.645Z,22.70
2023-05-09T13:07:57.641Z,22.56
2023-05-09T13:10:01.228Z,22.69
2023-05-09T13:12:04.462Z,22.72
2023-05-09T13:14:06.368Z,22.58
2023-05-09T13:16:10.507Z,22.55
2023-05-09T13:18:13.836Z,22.72
2023-05-09T13:20:17.327Z,22.89
2023-05-09T13:22:19.847Z,22.68
2023-05-09T13:24:21.722Z,23.14
2023-05-09T13:26:23.680Z,23.20
2023-05-09T13:28:25.765Z,23.29
2023-05-09T13:30:27.802Z,23.39
2023-05-09T13:32:29.993Z,23.48
2023-05-09T13:34:31.986Z,23.30
2023-05-09T13:36:34.134Z,22.97
2023-05-09T13:38:39.180Z,22.83
2023-05-09T13:40:41.133Z,22.97
2023-05-09T13:42:44.079Z,23.00
2023-05-09T13:44:46.228Z,22.82
2023-05-09T13:46:48.283Z,22.38
2023-05-09T13:48:50.336Z,22.17
2023-05-09T13:50:52.382Z,22.11
2023-05-09T13:52:54.702Z,21.97
2023-05-09T13:54:59.941Z,21.89
2023-05-09T13:57:04.342Z,21.65
2023-05-09T13:59:07.044Z,21.35
2023-05-09T14:01:09.106Z,21.19
2023-05-09T14:03:11.035Z,21.10
2023-05-09T14:05:13.048Z,21.01
2023-05-09T14:07:16.871Z,21.09
2023-05-09T14:09:19.469Z,21.11
2023-05-09T14:11:21.567Z,21.28
2023-05-09T14:13:23.497Z,21.10
2023-05-09T14:15:25.491Z,21.15
2023-05-09T14:17:31.522Z,21.12
2023-05-09T14:19:34.464Z,20.84
2023-05-09T14:21:39.984Z,20.79
2023-05-09T14:23:42.428Z,20.64
2023-05-09T14:25:45.015Z,20.53
2023-05-09T14:27:49.199Z,20.37
2023-05-09T14:29:51.393Z,20.45
2023-05-09T14:31:53.908Z,20.60
2023-05-09T14:33:56.379Z,20.57
2023-05-09T14:35:58.356Z,20.31
2023-05-09T14:38:01.421Z,20.37
2023-05-09T14:40:05.821Z,20.63
2023-05-09T14:42:10.515Z,20.90
2023-05-09T14:44:12.433Z,21.09
2023-05-09T14:46:14.366Z,21.40
2023-05-09T14:48:17.117Z,21.44
2023-05-09T14:50:21.967Z,21.84
2023-05-09T14:52:23.917Z,22.23
2023-05-09T14:54:26.033Z,22.58
2023-05-09T14:56:29.243Z,22.96
2023-05-09T15:00:35.121Z,23.69
2023-05-09T15:02:37.571Z,23.51
2023-05-09T15:04:41.538Z,23.36
2023-05-09T15:06:43.553Z,23.50
2023-05-09T15:08:45.504Z,23.49
2023-05-09T15:10:48.489Z,22.92
2023-05-09T15:12:50.330Z,23.26
2023-05-09T15:14:54.243Z,23.36
2023-05-09T15:16:59.231Z,23.13
2023-05-09T15:19:01.699Z,22.89
2023-05-09T15:21:05.131Z,23.05
2023-05-09T15:23:08.038Z,22.89
2023-05-09T15:25:10.354Z,23.05
2023-05-09T15:27:12.167Z,22.96
2023-05-09T15:29:14.250Z,22.92
2023-05-09T15:31:16.352Z,23.07
2023-05-09T15:33:18.817Z,22.90
2023-05-09T15:35:21.487Z,22.55
2023-05-09T15:37:26.167Z,22.41
2023-05-09T15:39:28.087Z,22.31
2023-05-09T15:41:35.462Z,21.84
2023-05-09T15:43:37.386Z,21.53
2023-05-09T15:45:45.450Z,21.48
2023-05-09T15:47:47.626Z,21.38
2023-05-09T15:49:49.784Z,21.04
2023-05-09T15:51:51.829Z,21.16
2023-05-09T15:53:53.768Z,20.97
2023-05-09T15:55:56.887Z,20.68
2023-05-09T15:57:59.380Z,20.37
2023-05-09T16:00:01.413Z,20.12
2023-05-09T16:02:06.821Z,20.12
2023-05-09T16:04:09.717Z,20.15
2023-05-09T16:06:13.066Z,20.06
2023-05-09T16:08:15.143Z,20.01
2023-05-09T16:10:19.380Z,19.80
2023-05-09T16:12:21.314Z,19.97
2023-05-09T16:14:23.589Z,19.94
2023-05-09T16:16:26.305Z,19.64
2023-05-09T16:18:29.143Z,19.33
2023-05-09T16:20:31.109Z,19.60
2023-05-09T16:22:33.092Z,19.44
2023-05-09T16:24:35.457Z,19.44
2023-05-09T16:26:37.541Z,19.17
2023-05-09T16:28:40.427Z,19.06
2023-05-09T16:30:43.296Z,18.97
2023-05-09T16:32:45.581Z,18.99
2023-05-09T16:34:47.752Z,19.11
2023-05-09T16:36:49.933Z,19.17
2023-05-09T16:38:51.763Z,19.13
2023-05-09T16:40:54.529Z,19.14
2023-05-09T16:42:56.811Z,19.11
2023-05-09T16:44:58.743Z,19.21
2023-05-09T16:47:01.246Z,19.03
2023-05-09T16:49:03.515Z,19.01
2023-05-09T16:51:05.778Z,18.90
2023-05-09T16:53:08.385Z,18.67
2023-05-09T16:55:13.681Z,18.55
2023-05-09T16:57:17.276Z,18.72
2023-05-09T16:59:20.237Z,18.64
2023-05-09T17:01:22.270Z,18.61
2023-05-09T17:03:24.338Z,18.59
2023-05-09T17:05:26.748Z,18.41
2023-05-09T17:07:31.157Z,18.35
2023-05-09T17:09:38.575Z,18.51
2023-05-09T17:11:40.574Z,18.63
2023-05-09T17:13:44.338Z,18.80
2023-05-09T17:15:46.535Z,18.80
2023-05-09T17:17:48.956Z,18.80
2023-05-09T17:19:51.362Z,18.74
2023-05-09T17:21:56.276Z,18.83
2023-05-09T17:23:58.601Z,18.87
2023-05-09T17:26:00.776Z,18.97
2023-05-09T17:28:03.340Z,18.96
2023-05-09T17:30:06.486Z,19.07
2023-05-09T17:32:09.037Z,18.95
2023-05-09T17:34:11.948Z,18.99
2023-05-09T17:36:13.854Z,19.07
2023-05-09T17:38:18.885Z,18.90
2023-05-09T17:40:21.690Z,18.87
2023-05-09T17:42:23.932Z,18.83
2023-05-09T17:44:26.094Z,18.78
2023-05-09T17:46:28.296Z,18.73
2023-05-09T17:48:30.914Z,18.71
2023-05-09T17:50:33.725Z,18.66
2023-05-09T17:52:36.162Z,18.42
2023-05-09T17:54:38.007Z,18.42
2023-05-09T17:56:40.294Z,18.48
2023-05-09T17:58:45.617Z,18.32
2023-05-09T18:00:48.268Z,18.22
2023-05-09T18:02:51.314Z,18.12
2023-05-09T18:04:54.131Z,18.18
2023-05-09T18:06:56.112Z,18.15
2023-05-09T18:08:58.879Z,18.25
2023-05-09T18:11:00.878Z,18.13
2023-05-09T18:13:03.709Z,17.86
2023-05-09T18:15:07.208Z,18.01
2023-05-09T18:17:09.178Z,18.05
2023-05-09T18:19:11.727Z,18.08
2023-05-09T18:21:14.154Z,17.98
2023-05-09T18:23:16.313Z,17.97
2023-05-09T18:25:18.589Z,17.95
2023-05-09T18:27:20.439Z,17.98
2023-05-09T18:29:23.411Z,17.92
2023-05-09T18:31:25.238Z,17.98
2023-05-09T18:33:30.758Z,17.73
2023-05-09T18:35:32.734Z,17.81
2023-05-09T18:37:39.337Z,17.81
2023-05-09T18:39:41.181Z,17.77
2023-05-09T18:41:47.359Z,17.74
2023-05-09T18:43:49.252Z,17.55
2023-05-09T18:45:52.026Z,17.62
2023-05-09T18:47:53.949Z,17.66
2023-05-09T18:49:55.713Z,17.62
2023-05-09T18:51:57.585Z,17.59
2023-05-09T18:54:02.546Z,17.52
2023-05-09T18:56:05.630Z,17.42
2023-05-09T18:58:07.412Z,17.33
2023-05-09T19:00:13.515Z,17.21
2023-05-09T19:02:15.373Z,17.07
2023-05-09T19:04:20.423Z,16.98
2023-05-09T19:06:22.374Z,16.88
2023-05-09T19:08:26.210Z,16.78
2023-05-09T19:10:27.974Z,16.58
2023-05-09T19:12:30.059Z,16.49
2023-05-09T19:14:32.348Z,16.39
2023-05-09T19:16:34.656Z,16.30
2023-05-09T19:18:36.544Z,16.26
2023-05-09T19:20:38.363Z,16.25
2023-05-09T19:22:43.949Z,16.20
2023-05-09T19:24:45.966Z,16.20
2023-05-09T19:26:47.782Z,16.19
2023-05-09T19:28:49.621Z,16.07
2023-05-09T19:30:52.270Z,15.90
2023-05-09T19:32:54.221Z,15.85
2023-05-09T19:34:59.192Z,16.09
2023-05-09T19:37:01.227Z,16.07
2023-05-09T19:39:09.028Z,16.12
2023-05-09T19:41:11.504Z,16.08
2023-05-09T19:43:14.313Z,15.98
2023-05-09T19:45:16.554Z,16.03
2023-05-09T19:47:20.645Z,16.08
2023-05-09T19:49:23.857Z,16.06
2023-05-09T19:51:26.284Z,16.07
2023-05-09T19:53:28.374Z,16.11
2023-05-09T19:55:31.566Z,16.17
2023-05-09T19:57:38.928Z,16.09
2023-05-09T19:59:40.758Z,16.13
2023-05-09T20:01:42.950Z,16.19
2023-05-09T20:03:46.984Z,16.22
2023-05-09T20:05:49.230Z,16.23
2023-05-09T20:07:51.226Z,16.22
2023-05-09T20:09:53.641Z,16.17
2023-05-09T20:11:58.219Z,16.25
2023-05-09T20:14:00.865Z,16.33
2023-05-09T20:16:04.348Z,16.36
2023-05-09T20:18:10.589Z,16.37
2023-05-09T20:20:14.291Z,16.41
2023-05-09T20:22:17.288Z,16.38
2023-05-09T20:24:21.150Z,16.37
2023-05-09T20:26:25.301Z,16.31
2023-05-09T20:28:28.670Z,16.36
2023-05-09T20:30:31.433Z,16.37
2023-05-09T20:32:35.663Z,16.10
2023-05-09T20:34:37.486Z,16.25
2023-05-09T20:36:39.421Z,16.26
2023-05-09T20:38:41.195Z,16.26
2023-05-09T20:40:44.220Z,16.14
2023-05-09T20:42:49.084Z,16.19
2023-05-09T20:44:51.646Z,16.19
2023-05-09T20:46:55.851Z,16.16
2023-05-09T20:48:57.682Z,16.20
2023-05-09T20:50:59.445Z,16.18
2023-05-09T20:53:01.406Z,16.20
2023-05-09T20:55:03.530Z,16.16
2023-05-09T20:57:05.342Z,16.21
2023-05-09T20:59:07.155Z,16.16
2023-05-09T21:01:09.166Z,16.08
2023-05-09T21:03:11.203Z,16.04
2023-05-09T21:05:13.126Z,16.07
2023-05-09T21:07:19.235Z,15.97
2023-05-09T21:09:21.155Z,16.05
2023-05-09T21:11:23.371Z,16.00
2023-05-09T21:13:25.461Z,16.08
2023-05-09T21:15:27.538Z,16.09
2023-05-09T21:17:34.507Z,16.19
2023-05-09T21:19:36.467Z,16.13
2023-05-09T21:21:41.635Z,16.16
2023-05-09T21:23:43.450Z,16.19
2023-05-09T21:25:45.297Z,16.17
2023-05-09T21:27:47.083Z,16.13
2023-05-09T21:29:49.522Z,16.22
2023-05-09T21:31:51.346Z,16.13
2023-05-09T21:33:53.142Z,16.16
2023-05-09T21:35:54.937Z,16.20
2023-05-09T21:37:56.762Z,16.21
2023-05-09T21:39:58.465Z,16.07
2023-05-09T21:42:00.264Z,15.96
2023-05-09T21:44:02.207Z,15.98
2023-05-09T21:46:05.666Z,15.99
2023-05-09T21:48:07.617Z,15.98
2023-05-09T21:50:09.987Z,15.95
2023-05-09T21:52:11.736Z,15.98
2023-05-09T21:54:13.483Z,16.00
2023-05-09T21:56:15.332Z,15.84
2023-05-09T21:58:17.101Z,15.91
2023-05-09T22:00:19.924Z,15.77
2023-05-09T22:02:21.727Z,15.86
2023-05-09T22:04:23.465Z,15.93
2023-05-09T22:06:25.162Z,15.93
2023-05-09T22:08:26.938Z,15.86
2023-05-09T22:10:28.936Z,15.86
2023-05-09T22:12:30.732Z,15.87
2023-05-09T22:14:37.136Z,15.81
2023-05-09T22:16:44.070Z,15.77
2023-05-09T22:18:45.925Z,15.82
2023-05-09T22:20:47.809Z,15.77
2023-05-09T22:22:49.757Z,15.79
2023-05-09T22:24:51.574Z,15.80
2023-05-09T22:26:53.326Z,15.85
2023-05-09T22:28:55.068Z,15.86
2023-05-09T22:30:57.100Z,15.88
2023-05-09T22:33:00.265Z,15.80
2023-05-09T22:35:02.410Z,15.71
2023-05-09T22:37:05.174Z,15.74
2023-05-09T22:39:06.911Z,15.63
2023-05-09T22:41:09.220Z,15.68
2023-05-09T22:43:11.752Z,15.46
2023-05-09T22:45:13.989Z,15.45
2023-05-09T22:47:16.256Z,15.37
2023-05-09T22:49:17.983Z,15.37
2023-05-09T22:51:19.759Z,15.46
2023-05-09T22:53:21.520Z,15.36
2023-05-09T22:55:23.421Z,15.42
2023-05-09T22:57:25.185Z,15.43
2023-05-09T22:59:27.196Z,15.35
2023-05-09T23:01:33.440Z,15.46
2023-05-09T23:03:35.224Z,15.37
2023-05-09T23:05:39.695Z,15.38
2023-05-09T23:07:41.648Z,15.38
2023-05-09T23:09:43.473Z,15.37
2023-05-09T23:11:45.269Z,15.39
2023-05-09T23:13:47.037Z,15.42
2023-05-09T23:15:48.747Z,15.43
2023-05-09T23:17:50.467Z,15.41
2023-05-09T23:19:52.353Z,15.15
2023-05-09T23:21:54.353Z,15.11
2023-05-09T23:23:56.214Z,15.14
2023-05-09T23:25:57.887Z,15.14
2023-05-09T23:27:59.613Z,15.21
2023-05-09T23:30:01.365Z,15.09
2023-05-09T23:32:03.196Z,15.03
2023-05-09T23:34:04.942Z,15.00
2023-05-09T23:36:07.309Z,14.98
2023-05-09T23:38:09.331Z,15.07
2023-05-09T23:40:12.313Z,15.05
2023-05-09T23:42:14.207Z,14.86
2023-05-09T23:44:16.310Z,14.84
2023-05-09T23:46:18.111Z,14.95
2023-05-09T23:48:19.986Z,14.97
2023-05-09T23:50:21.935Z,14.87
2023-05-09T23:52:23.848Z,14.88
2023-05-09T23:54:27.101Z,15.02
2023-05-09T23:56:29.160Z,15.02
2023-05-09T23:58:33.691Z,15.13
